Time;durP1;ratioP1;P1;durP2;ratioP2;P2;SDS_P1;SDS_P2;PMS_P1;PMS_P2;Temp;Humidity;BMP_temperature;BMP_pressure;BME280_temperature;BME280_humidity;BME280_pressure;Samples;Min_cycle;Max_cycle;Signal;HPM_P1;HPM_P2
2020/12/22 00:01:39;;;;;;;29.30;6.28;;;14.10;99.90;;;13.21;100.00;101306.13;4119329;28;20510;-67
2020/12/22 00:03:41;;;;;;;35.13;7.03;;;14.10;99.90;;;13.24;100.00;101311.13;4119283;28;20090;-67
2020/12/22 00:05:42;;;;;;;34.83;7.00;;;14.10;99.90;;;13.27;100.00;101309.00;4104168;28;20535;-67
2020/12/22 00:07:43;;;;;;;32.70;6.03;;;14.10;99.90;;;13.28;100.00;101318.59;4104938;29;20027;-67
2020/12/22 00:09:44;;;;;;;39.78;7.05;;;14.10;99.90;;;13.20;100.00;101309.81;4104966;29;20023;-67
2020/12/22 00:11:44;;;;;;;38.00;6.43;;;14.10;99.90;;;13.15;100.00;101310.25;4120880;28;20046;-67
2020/12/22 00:13:45;;;;;;;32.08;6.47;;;14.10;99.90;;;13.16;100.00;101313.75;4104887;29;20035;-67
2020/12/22 00:15:46;;;;;;;28.70;7.20;;;14.00;99.90;;;13.18;100.00;101322.34;4121070;28;20049;-67
2020/12/22 00:17:47;;;;;;;36.63;6.75;;;14.00;99.90;;;13.26;100.00;101323.22;4104822;29;20031;-67
2020/12/22 00:19:48;;;;;;;37.20;7.53;;;14.10;99.90;;;13.21;100.00;101311.44;4121838;28;20034;-67
2020/12/22 00:21:49;;;;;;;32.00;8.30;;;14.10;99.90;;;13.19;100.00;101314.25;4121799;28;20027;-67
2020/12/22 00:23:50;;;;;;;37.95;8.30;;;14.10;99.90;;;13.29;100.00;101324.72;4121967;28;20037;-67
2020/12/22 00:25:51;;;;;;;33.58;6.82;;;14.00;99.90;;;13.20;100.00;101321.19;4121996;28;20478;-67
2020/12/22 00:27:52;;;;;;;33.90;6.60;;;14.10;99.90;;;13.23;100.00;101320.88;4121621;28;20027;-67
2020/12/22 00:29:53;;;;;;;39.13;7.88;;;14.10;99.90;;;13.21;100.00;101314.94;4104433;29;20078;-68
2020/12/22 00:32:00;;;;;;;30.42;7.15;;;14.10;99.90;;;13.21;100.00;101320.22;4104664;29;20027;-67
2020/12/22 00:34:01;;;;;;;41.17;7.47;;;14.00;99.90;;;13.20;100.00;101317.75;4105415;28;20024;-67
2020/12/22 00:36:09;;;;;;;32.42;7.25;;;14.10;99.90;;;13.24;100.00;101308.47;4121361;28;20037;-67
2020/12/22 00:38:10;;;;;;;33.42;6.93;;;14.00;99.90;;;13.12;100.00;101329.13;4104349;29;20026;-67
2020/12/22 00:40:11;;;;;;;35.78;6.90;;;14.00;99.90;;;13.12;100.00;101313.22;4104390;29;20522;-67
2020/12/22 00:42:12;;;;;;;30.63;6.85;;;14.00;99.90;;;13.12;100.00;101313.22;4120110;28;20062;-67
2020/12/22 00:44:12;;;;;;;23.67;5.97;;;14.00;99.90;;;13.17;100.00;101313.56;4104547;28;20486;-67
2020/12/22 00:46:17;;;;;;;37.75;7.53;;;14.00;99.90;;;13.16;100.00;101297.84;4121467;28;20030;-67
2020/12/22 00:48:18;;;;;;;25.77;7.63;;;14.00;99.90;;;13.16;100.00;101303.97;4104360;28;20031;-68
2020/12/22 00:50:18;;;;;;;30.63;8.70;;;14.00;99.90;;;13.13;100.00;101293.72;4088030;29;20031;-67
2020/12/22 00:52:19;;;;;;;24.55;6.10;;;14.00;99.90;;;13.10;100.00;101301.97;4116006;28;20027;-67
2020/12/22 00:54:20;;;;;;;31.23;6.75;;;14.00;99.90;;;13.01;100.00;101302.06;4104149;29;20028;-67
2020/12/22 00:56:21;;;;;;;46.90;7.53;;;13.90;99.90;;;12.97;100.00;101298.88;4104215;29;20419;-67
2020/12/22 00:58:22;;;;;;;26.98;6.20;;;13.90;99.90;;;13.05;100.00;101296.25;4121383;28;20027;-67
2020/12/22 01:00:23;;;;;;;31.70;6.97;;;13.90;99.90;;;13.08;100.00;101297.81;4104270;29;20507;-67
2020/12/22 01:02:24;;;;;;;31.23;6.30;;;13.90;99.90;;;13.04;100.00;101299.09;4104022;29;20030;-67
2020/12/22 01:04:25;;;;;;;26.45;6.63;;;13.80;99.90;;;13.02;100.00;101306.38;4121408;28;20117;-67
2020/12/22 01:06:26;;;;;;;29.20;5.90;;;13.80;99.90;;;12.97;100.00;101293.59;4104221;29;20024;-67
2020/12/22 01:08:27;;;;;;;40.67;7.60;;;13.80;99.90;;;12.94;100.00;101296.53;4121255;28;20105;-67
2020/12/22 01:10:28;;;;;;;27.23;5.40;;;13.80;99.90;;;12.95;100.00;101298.22;4121123;28;20027;-67
2020/12/22 01:12:29;;;;;;;35.00;6.55;;;13.80;99.90;;;13.00;100.00;101300.38;4104076;29;20031;-67
2020/12/22 01:14:30;;;;;;;29.95;5.13;;;13.80;99.90;;;12.99;100.00;101296.09;4104092;29;20027;-67
2020/12/22 01:16:31;;;;;;;29.77;6.80;;;13.80;99.90;;;12.94;100.00;101293.06;4103282;28;20027;-67
2020/12/22 01:18:32;;;;;;;37.70;6.55;;;13.80;99.90;;;13.00;100.00;101306.50;4103942;29;20496;-67
2020/12/22 01:20:33;;;;;;;29.75;6.55;;;13.80;99.90;;;12.97;100.00;101293.59;4120843;28;20055;-67
2020/12/22 01:22:34;;;;;;;35.08;5.38;;;13.70;99.90;;;12.96;100.00;101280.53;4104063;29;20552;-67
2020/12/22 01:24:35;;;;;;;26.33;6.40;;;13.70;99.90;;;12.98;100.00;101279.38;4121031;28;20027;-67
2020/12/22 01:26:36;;;;;;;37.70;6.45;;;13.80;99.90;;;12.99;100.00;101290.78;4103884;29;20035;-67
2020/12/22 01:28:36;;;;;;;26.35;6.50;;;13.80;99.90;;;13.00;100.00;101306.50;4103926;28;20031;-67
2020/12/22 01:30:38;;;;;;;29.48;6.63;;;13.80;99.90;;;12.98;100.00;101303.19;4087864;29;20039;-67
2020/12/22 01:32:39;;;;;;;35.42;6.97;;;13.80;99.90;;;12.94;100.00;101299.19;4103808;28;20055;-67
2020/12/22 01:34:40;;;;;;;34.22;7.00;;;13.80;99.90;;;12.94;100.00;101301.84;4087652;29;20024;-67
2020/12/22 01:36:41;;;;;;;28.13;5.05;;;13.80;99.90;;;12.90;100.00;101304.97;4120809;28;20023;-67
2020/12/22 01:38:42;;;;;;;36.92;7.25;;;13.80;99.90;;;12.98;100.00;101315.59;4103790;29;20063;-67
2020/12/22 01:40:50;;;;;;;28.55;5.10;;;13.80;99.90;;;12.95;100.00;101311.47;4120418;28;20063;-67
2020/12/22 01:42:51;;;;;;;27.35;5.35;;;13.80;99.90;;;12.87;100.00;101305.28;4119705;28;20035;-67
2020/12/22 01:44:51;;;;;;;25.50;5.55;;;13.80;99.90;;;12.85;100.00;101302.78;4103689;29;20042;-67
2020/12/22 01:46:52;;;;;;;33.95;5.25;;;13.70;99.90;;;12.88;100.00;101317.53;4120912;28;20030;-67
2020/12/22 01:48:53;;;;;;;21.30;4.15;;;13.80;99.90;;;12.91;100.00;101299.50;4103476;28;20059;-67
2020/12/22 01:50:54;;;;;;;32.88;6.88;;;13.70;99.90;;;12.86;100.00;101300.97;4120423;28;20034;-67
2020/12/22 01:52:55;;;;;;;26.90;4.45;;;13.70;99.90;;;12.84;100.00;101298.50;4103629;29;20027;-67
2020/12/22 01:54:56;;;;;;;19.52;4.30;;;13.70;99.90;;;12.85;100.00;101304.59;4120821;28;20023;-67
2020/12/22 01:56:58;;;;;;;23.15;5.53;;;13.70;99.90;;;12.90;100.00;101300.53;4103578;29;20035;-68
2020/12/22 01:58:59;;;;;;;25.23;5.30;;;13.70;99.90;;;12.93;100.00;101305.47;4120636;28;20113;-67
2020/12/22 02:00:59;;;;;;;20.17;3.80;;;13.70;99.90;;;12.92;100.00;101311.78;4103490;29;20031;-67
2020/12/22 02:03:01;;;;;;;22.10;4.53;;;13.80;99.90;;;12.84;100.00;101309.09;4120557;28;20416;-67
2020/12/22 02:05:04;;;;;;;23.67;4.70;;;13.70;99.90;;;12.89;100.00;101317.38;4103027;29;20074;-67
2020/12/22 02:07:05;;;;;;;24.67;4.40;;;13.70;99.90;;;12.90;100.00;101313.75;4103300;28;20110;-67
2020/12/22 02:09:10;;;;;;;26.67;4.85;;;13.70;99.90;;;12.88;100.00;101320.16;4103182;29;20070;-67
2020/12/22 02:11:11;;;;;;;25.33;4.88;;;13.70;99.90;;;12.88;100.00;101313.06;4120514;28;20030;-67
2020/12/22 02:13:12;;;;;;;25.92;6.35;;;13.70;99.90;;;12.88;100.00;101299.00;4120475;28;20034;-67
2020/12/22 02:15:13;;;;;;;23.17;5.25;;;13.70;99.90;;;12.89;100.00;101305.97;4120411;28;20027;-67
2020/12/22 02:17:14;;;;;;;20.10;3.42;;;13.70;99.90;;;12.81;100.00;101312.06;4102990;29;20475;-67
2020/12/22 02:19:15;;;;;;;23.95;3.30;;;13.70;99.90;;;12.86;100.00;101307.09;4103314;29;20114;-67
2020/12/22 02:21:16;;;;;;;23.13;4.65;;;13.70;99.90;;;12.87;100.00;101319.38;4103006;29;20106;-67
2020/12/22 02:23:17;;;;;;;27.73;4.25;;;13.70;99.90;;;12.87;100.00;101324.66;4103165;29;20165;-67
2020/12/22 02:25:18;;;;;;;16.73;3.70;;;13.70;99.90;;;12.89;100.00;101303.31;4103025;29;20102;-67
2020/12/22 02:27:19;;;;;;;27.25;5.03;;;13.70;99.90;;;12.85;100.00;101310.72;4103239;28;20043;-67
2020/12/22 02:29:20;;;;;;;27.73;5.80;;;13.70;99.90;;;12.89;100.00;101320.03;4120278;28;20026;-68
2020/12/22 02:31:24;;;;;;;22.05;4.55;;;13.70;99.90;;;12.90;100.00;101307.63;4103028;29;20031;-67
2020/12/22 02:33:25;;;;;;;;;;;13.70;99.90;;;12.85;100.00;101308.09;4103211;28;20035;-67
2020/12/22 02:35:26;;;;;;;20.75;4.97;;;13.70;99.90;;;12.85;100.00;101309.91;4102898;29;19910;-67
2020/12/22 02:37:27;;;;;;;21.52;5.43;;;13.70;99.90;;;12.87;100.00;101314.06;4120202;28;20058;-67
2020/12/22 02:39:28;;;;;;;21.45;4.53;;;13.70;99.90;;;12.85;100.00;101304.59;4120153;28;20402;-67
2020/12/22 02:41:29;;;;;;;24.50;4.68;;;13.70;99.90;;;12.90;100.00;101307.63;4102579;28;20043;-67
2020/12/22 02:43:30;;;;;;;22.70;5.40;;;13.70;99.90;;;12.91;100.00;101315.41;4102951;28;20578;-67
2020/12/22 02:45:31;;;;;;;27.83;6.88;;;13.70;99.90;;;12.89;100.00;101306.78;4086910;29;20032;-68
2020/12/22 02:47:32;;;;;;;33.45;6.47;;;13.70;99.90;;;12.91;100.00;101310.09;4103804;28;20043;-67
2020/12/22 02:49:33;;;;;;;26.70;4.68;;;13.70;99.90;;;12.84;100.00;101306.44;4120144;28;20023;-67
2020/12/22 02:51:34;;;;;;;22.83;4.90;;;13.70;99.90;;;12.86;100.00;101308.91;4102966;28;20042;-68
2020/12/22 02:53:34;;;;;;;29.50;5.03;;;13.70;99.90;;;12.92;100.00;101318.88;4119891;28;20058;-67
2020/12/22 02:55:35;;;;;;;24.85;5.50;;;13.70;99.90;;;12.87;100.00;101316.72;4102841;29;20026;-67
2020/12/22 02:57:36;;;;;;;25.13;5.65;;;13.70;99.90;;;12.84;100.00;101311.75;4102501;29;20039;-67
2020/12/22 02:59:37;;;;;;;31.65;6.22;;;13.70;99.90;;;12.85;100.00;101316.03;4119934;28;20502;-68
2020/12/22 03:01:39;;;;;;;30.15;4.95;;;13.70;99.90;;;12.84;100.00;101302.97;4102723;29;20426;-67
2020/12/22 03:03:40;;;;;;;26.33;6.22;;;13.70;99.90;;;12.86;100.00;101306.28;4119675;28;20035;-67
2020/12/22 03:05:41;;;;;;;24.67;5.05;;;13.70;99.90;;;12.89;100.00;101306.78;4119480;28;20026;-67
2020/12/22 03:07:42;;;;;;;33.97;5.90;;;13.70;99.90;;;12.94;100.00;101307.13;4102771;29;20039;-68
2020/12/22 03:09:43;;;;;;;27.80;4.20;;;13.70;99.90;;;12.92;100.00;101298.53;4119792;28;20438;-68
2020/12/22 03:11:44;;;;;;;31.60;6.85;;;13.70;99.90;;;12.97;100.00;101320.06;4086653;29;20051;-67
2020/12/22 03:13:45;;;;;;;28.98;5.85;;;13.70;99.90;;;12.97;100.00;101301.53;4119573;28;20023;-67
2020/12/22 03:15:46;;;;;;;28.77;6.03;;;13.70;99.90;;;12.94;100.00;101303.66;4119833;28;20019;-67
2020/12/22 03:17:47;;;;;;;27.63;5.40;;;13.70;99.90;;;12.96;100.00;101309.66;4102620;29;20028;-67
2020/12/22 03:19:47;;;;;;;29.33;6.18;;;13.70;99.90;;;12.99;100.00;101310.13;4102403;29;20028;-67
2020/12/22 03:21:48;;;;;;;25.23;5.22;;;13.80;99.90;;;13.00;100.00;101309.16;4119719;28;20030;-67
2020/12/22 03:23:50;;;;;;;33.42;5.60;;;13.80;99.90;;;12.96;100.00;101310.44;4119744;28;20082;-67
2020/12/22 03:25:50;;;;;;;35.33;6.82;;;13.80;99.90;;;12.92;100.00;101306.47;4086629;29;20052;-67
2020/12/22 03:27:51;;;;;;;31.88;6.15;;;13.80;99.90;;;13.03;100.00;101315.94;4102355;29;20027;-68
2020/12/22 03:29:52;;;;;;;37.35;6.70;;;13.80;99.90;;;12.98;100.00;101311.16;4119610;28;20121;-67
2020/12/22 03:31:53;;;;;;;35.17;5.85;;;13.70;99.90;;;12.95;100.00;101311.47;4119562;28;20052;-68
2020/12/22 03:33:54;;;;;;;27.17;4.82;;;13.80;99.90;;;12.97;100.00;101314.78;4102595;29;20024;-67
2020/12/22 03:35:55;;;;;;;28.45;5.00;;;13.80;99.90;;;12.94;100.00;101299.19;4102181;29;20031;-67
2020/12/22 03:37:57;;;;;;;29.52;5.35;;;13.80;99.90;;;12.95;100.00;101314.09;4101995;28;20376;-68
2020/12/22 03:40:01;;;;;;;24.25;4.13;;;13.80;99.90;;;12.96;100.00;101313.09;4103454;28;20159;-67
2020/12/22 03:42:02;;;;;;;19.35;4.35;;;13.80;99.90;;;12.99;100.00;101323.38;4105077;28;20134;-67
2020/12/22 03:44:03;;;;;;;25.67;5.18;;;13.80;99.90;;;12.93;100.00;101308.13;4122479;28;20034;-68
2020/12/22 03:46:06;;;;;;;19.88;4.90;;;13.80;99.90;;;12.86;100.00;101308.91;4122407;28;20034;-67
2020/12/22 03:48:07;;;;;;;19.25;3.70;;;13.70;99.90;;;12.89;100.00;101301.50;4105130;28;20024;-68
2020/12/22 03:50:07;;;;;;;16.75;4.00;;;13.70;99.90;;;12.89;100.00;101300.66;4122051;28;20521;-67
2020/12/22 03:52:08;;;;;;;16.65;3.33;;;13.80;99.90;;;12.98;100.00;101308.50;4122416;28;20038;-67
2020/12/22 03:54:10;;;;;;;18.05;3.17;;;13.80;99.90;;;12.95;100.00;101303.50;4122259;28;20070;-68
2020/12/22 03:56:11;;;;;;;21.73;3.45;;;13.80;99.90;;;12.95;100.00;101294.72;4105024;28;20035;-68
2020/12/22 03:58:12;;;;;;;19.23;4.50;;;13.80;99.90;;;12.93;100.00;101297.53;4105065;28;20035;-67
2020/12/22 04:00:15;;;;;;;18.95;4.45;;;13.80;99.90;;;12.94;100.00;101296.53;4104918;28;20074;-68
2020/12/22 04:02:16;;;;;;;13.57;2.67;;;13.80;99.90;;;12.96;100.00;101299.06;4105095;28;20483;-67
2020/12/22 04:04:22;;;;;;;12.75;2.88;;;13.80;99.90;;;12.94;100.00;101299.19;4088660;29;20042;-67
2020/12/22 04:06:23;;;;;;;15.48;3.53;;;13.70;99.90;;;12.97;100.00;101298.03;4089096;29;20512;-67
2020/12/22 04:08:24;;;;;;;20.90;4.00;;;13.80;99.90;;;13.00;100.00;101298.56;4113680;28;20061;-67
2020/12/22 04:10:25;;;;;;;11.57;2.70;;;13.80;99.90;;;12.93;100.00;101302.81;4104786;29;20031;-67
2020/12/22 04:12:26;;;;;;;11.20;3.17;;;13.80;99.90;;;12.93;100.00;101297.53;4121843;28;20019;-67
2020/12/22 04:14:27;;;;;;;16.88;3.70;;;13.80;99.90;;;12.91;100.00;101294.22;4104993;29;20023;-67
2020/12/22 04:16:27;;;;;;;15.68;3.40;;;13.80;99.90;;;12.91;100.00;101303.97;4121907;28;20034;-67
2020/12/22 04:18:28;;;;;;;11.23;2.78;;;13.80;99.90;;;12.96;100.00;101305.16;4088604;29;20027;-67
2020/12/22 04:20:29;;;;;;;11.55;3.47;;;13.80;99.90;;;12.96;100.00;101297.22;4104370;28;20031;-67
2020/12/22 04:22:30;;;;;;;12.68;2.28;;;13.70;99.90;;;12.97;100.00;101298.88;4104682;28;20050;-68
2020/12/22 04:24:31;;;;;;;9.80;2.65;;;13.80;99.90;;;12.99;100.00;101294.25;4121794;28;20026;-67
2020/12/22 04:26:33;;;;;;;10.25;2.50;;;13.80;99.90;;;12.98;100.00;101300.56;4121700;28;20023;-67
2020/12/22 04:28:34;;;;;;;14.55;3.67;;;13.70;99.90;;;12.95;100.00;101295.56;4104417;29;20034;-67
2020/12/22 04:30:35;;;;;;;12.35;2.55;;;13.80;99.90;;;12.96;100.00;101307.81;4104449;28;20534;-67
2020/12/22 04:32:36;;;;;;;7.53;2.28;;;13.80;99.90;;;12.96;100.00;101307.81;4121659;28;20055;-67
2020/12/22 04:34:37;;;;;;;7.78;1.77;;;13.80;99.90;;;13.02;100.00;101303.72;4088248;29;20024;-67
2020/12/22 04:36:37;;;;;;;10.10;1.85;;;13.80;99.90;;;12.89;100.00;101301.50;4121402;28;20102;-68
2020/12/22 04:38:38;;;;;;;9.00;1.50;;;13.80;99.90;;;12.94;100.00;101301.84;4121633;28;20026;-67
2020/12/22 04:40:39;;;;;;;4.93;1.67;;;13.80;99.90;;;12.91;100.00;101288.09;4121324;28;20449;-68
2020/12/22 04:42:42;;;;;;;5.63;1.38;;;13.80;99.90;;;13.04;100.00;101304.38;4120123;28;20030;-68
2020/12/22 04:44:44;;;;;;;5.82;2.00;;;13.80;99.90;;;12.97;100.00;101293.59;4104308;28;20027;-68
2020/12/22 04:46:51;;;;;;;5.85;1.52;;;13.80;99.90;;;12.99;100.00;101291.59;4104319;28;20073;-67
2020/12/22 04:48:56;;;;;;;6.93;1.55;;;13.80;99.90;;;12.95;100.00;101290.28;4106661;28;20043;-68
2020/12/22 04:50:57;;;;;;;6.60;1.90;;;13.80;99.90;;;13.04;100.00;101289.31;4120021;28;20506;-67
2020/12/22 04:52:58;;;;;;;15.32;3.08;;;13.80;99.90;;;13.04;100.00;101281.38;4104062;29;20443;-68
2020/12/22 04:54:59;;;;;;;5.40;1.58;;;13.80;99.90;;;13.03;100.00;101281.53;4121353;28;20029;-68
2020/12/22 04:57:04;;;;;;;9.20;1.50;;;13.80;99.90;;;12.98;100.00;101297.06;4104163;29;20031;-68
2020/12/22 04:59:04;;;;;;;5.97;1.63;;;13.80;99.90;;;12.99;100.00;101302.19;4104152;28;20035;-68
2020/12/22 05:01:06;;;;;;;6.82;2.42;;;13.90;99.90;;;12.98;100.00;101299.72;4103749;29;20031;-68
2020/12/22 05:03:07;;;;;;;6.93;1.52;;;13.80;99.90;;;12.97;100.00;101303.34;4119871;28;20344;-68
2020/12/22 05:05:10;;;;;;;6.45;1.77;;;13.80;99.90;;;12.99;100.00;101320.72;4120886;28;20061;-67
2020/12/22 05:07:10;;;;;;;6.65;2.22;;;13.80;99.90;;;13.04;100.00;101315.81;4121095;28;20402;-68
2020/12/22 05:09:11;;;;;;;7.72;1.52;;;13.80;99.90;;;13.05;100.00;101306.06;4104056;29;20031;-67
2020/12/22 05:11:16;;;;;;;7.47;1.48;;;13.90;99.90;;;13.05;100.00;101306.84;4103876;28;20046;-68
2020/12/22 05:13:20;;;;;;;9.13;1.90;;;13.90;99.90;;;13.07;100.00;101314.66;4119739;28;20077;-68
2020/12/22 05:15:21;;;;;;;5.93;1.85;;;13.90;99.90;;;13.06;100.00;101319.13;4103816;28;20077;-68
2020/12/22 05:17:22;;;;;;;8.98;1.98;;;13.80;99.90;;;13.02;100.00;101317.75;4121059;28;20022;-68
2020/12/22 05:19:24;;;;;;;13.27;4.15;;;13.80;99.90;;;13.00;100.00;101325.06;4120753;28;20034;-68
2020/12/22 05:21:25;;;;;;;18.73;2.80;;;13.90;99.90;;;13.02;100.00;101320.41;4103935;28;20027;-67
2020/12/22 05:23:29;;;;;;;17.50;3.35;;;13.90;99.90;;;13.04;100.00;101326.41;4103529;28;20035;-68
2020/12/22 05:25:32;;;;;;;18.42;3.75;;;13.90;99.90;;;13.01;100.00;101329.38;4121064;28;20034;-68
2020/12/22 05:27:34;;;;;;;15.80;4.20;;;13.90;99.90;;;13.06;100.00;101329.72;4103812;29;20050;-68
2020/12/22 05:29:35;;;;;;;18.38;3.88;;;13.90;99.90;;;13.03;100.00;101323.91;4120818;28;20026;-68
2020/12/22 05:31:50;;;;;;;17.25;3.13;;;13.90;99.90;;;13.02;100.00;101338.97;4120616;28;20030;-67
2020/12/22 05:33:51;;;;;;;18.73;4.43;;;13.90;99.90;;;13.02;100.00;101328.34;4104162;28;20059;-68
2020/12/22 05:35:55;;;;;;;22.38;4.03;;;13.80;99.90;;;13.01;100.00;101318.78;4120532;28;20034;-68
2020/12/22 05:37:56;;;;;;;20.92;4.03;;;13.90;99.90;;;13.01;100.00;101315.28;4103802;28;20504;-68
2020/12/22 05:39:57;;;;;;;14.13;4.80;;;13.80;99.90;;;12.97;100.00;101316.59;4087324;29;20507;-68
2020/12/22 05:41:58;;;;;;;15.27;3.65;;;13.80;99.90;;;13.02;100.00;101320.41;4103331;28;20044;-67
2020/12/22 05:43:58;;;;;;;20.48;3.13;;;13.80;99.90;;;13.04;100.00;101322.91;4103388;28;20569;-68
2020/12/22 05:46:01;;;;;;;19.52;3.88;;;13.80;99.90;;;13.02;100.00;101316.97;4103151;28;20047;-68
2020/12/22 05:48:04;;;;;;;14.95;4.70;;;13.80;99.90;;;13.00;100.00;101308.31;4105605;28;20031;-68
2020/12/22 05:50:05;;;;;;;19.83;3.33;;;13.80;99.90;;;13.02;100.00;101317.75;4103229;28;20031;-68
2020/12/22 05:52:07;;;;;;;16.23;2.90;;;13.90;99.90;;;12.97;100.00;101316.59;4120479;28;20026;-67
2020/12/22 05:54:12;;;;;;;16.42;3.63;;;13.80;99.90;;;13.00;100.00;101316.28;4120365;28;20581;-68
2020/12/22 05:56:18;;;;;;;14.10;3.60;;;13.80;99.90;;;13.08;100.00;101322.47;4103828;28;20095;-68
2020/12/22 05:58:18;;;;;;;13.45;3.03;;;13.90;99.90;;;13.07;100.00;101330.56;4103404;28;20039;-68
2020/12/22 06:00:19;;;;;;;16.75;2.83;;;13.90;99.90;;;13.07;100.00;101323.44;4103198;29;20031;-68
2020/12/22 06:02:32;;;;;;;15.18;3.10;;;13.90;99.90;;;13.06;100.00;101327.06;4102763;28;20030;-67
2020/12/22 06:04:34;;;;;;;15.48;3.88;;;13.90;99.90;;;13.01;100.00;101333.84;4103153;28;20094;-68
2020/12/22 06:06:36;;;;;;;16.80;3.88;;;13.90;99.90;;;12.98;100.00;101329.69;4103028;29;20078;-68
2020/12/22 06:08:37;;;;;;;14.95;3.90;;;13.90;99.90;;;13.07;100.00;101334.03;4103451;28;20054;-68
2020/12/22 06:10:40;;;;;;;16.02;2.88;;;13.90;99.90;;;13.09;100.00;101328.59;4120327;28;20033;-68
2020/12/22 06:12:42;;;;;;;14.85;3.67;;;13.90;99.90;;;13.00;100.00;101318.91;4103538;28;20031;-68
2020/12/22 06:14:45;;;;;;;11.82;3.72;;;13.90;99.90;;;13.06;100.00;101328.88;4103388;28;20053;-68
2020/12/22 06:16:47;;;;;;;11.82;2.42;;;13.90;99.90;;;13.05;100.00;101333.34;4103342;28;20146;-68
2020/12/22 06:18:50;;;;;;;13.18;2.47;;;13.90;99.90;;;13.06;100.00;101334.19;4103177;28;20027;-67
2020/12/22 06:20:51;;;;;;;9.50;2.53;;;13.90;99.90;;;13.06;100.00;101334.19;4103080;28;20107;-67
2020/12/22 06:23:07;;;;;;;11.38;2.28;;;13.90;99.90;;;13.04;100.00;101336.16;4103053;28;20039;-68
2020/12/22 06:25:08;;;;;;;14.50;2.70;;;13.90;99.90;;;13.07;100.00;101341.16;4103040;28;20058;-68
2020/12/22 06:27:12;;;;;;;9.73;1.85;;;13.90;99.90;;;13.07;100.00;101336.69;4103039;28;20030;-68
2020/12/22 06:29:25;;;;;;;12.20;2.38;;;13.90;99.90;;;13.00;100.00;101335.63;4103247;28;20062;-68
2020/12/22 06:31:33;;;;;;;13.32;2.30;;;13.90;99.90;;;12.99;100.00;101338.47;4086919;29;20032;-68
2020/12/22 06:33:35;;;;;;;14.70;2.67;;;13.80;99.90;;;13.01;100.00;101334.66;4120227;28;20027;-68
2020/12/22 06:35:36;;;;;;;13.43;2.45;;;13.80;99.90;;;13.05;100.00;101321.94;4102885;29;20023;-67
2020/12/22 06:37:43;;;;;;;14.20;2.80;;;13.90;99.90;;;13.07;100.00;101331.38;4119955;28;20019;-67
2020/12/22 06:39:46;;;;;;;7.90;1.92;;;13.90;99.90;;;13.08;100.00;101327.75;4103701;28;20031;-68
2020/12/22 06:41:47;;;;;;;10.93;1.95;;;13.90;99.90;;;13.07;100.00;101325.25;4131821;28;20442;-68
2020/12/22 06:43:49;;;;;;;5.88;2.03;;;13.90;99.90;;;13.03;100.00;101324.75;4102905;29;20082;-67
2020/12/22 06:45:50;;;;;;;11.70;2.30;;;13.90;99.90;;;13.01;100.00;101320.59;4086637;29;20036;-67
2020/12/22 06:47:52;;;;;;;5.65;1.75;;;13.90;99.90;;;13.11;100.00;101319.50;4105329;28;20077;-68
2020/12/22 06:49:54;;;;;;;5.65;1.75;;;13.90;99.90;;;13.08;100.00;101319.81;4103234;28;20058;-67
2020/12/22 06:51:55;;;;;;;7.63;2.17;;;13.90;99.90;;;13.10;100.00;101327.63;4086502;29;20034;-68
2020/12/22 06:53:56;;;;;;;7.22;1.38;;;13.90;99.90;;;13.12;100.00;101331.78;4102333;28;20071;-68
2020/12/22 06:55:57;;;;;;;7.00;1.52;;;13.90;99.90;;;13.04;100.00;101331.69;4119461;28;20082;-68
2020/12/22 06:57:58;;;;;;;8.13;1.63;;;13.90;99.90;;;13.11;100.00;101342.53;4119559;28;20022;-68
2020/12/22 06:59:59;;;;;;;8.80;1.55;;;13.90;99.90;;;13.10;100.00;101352.28;4102352;29;20030;-68
2020/12/22 07:02:00;;;;;;;8.93;1.58;;;13.90;99.90;;;13.09;100.00;101341.84;4119760;28;20042;-68
2020/12/22 07:04:21;;;;;;;4.95;1.23;;;13.90;99.90;;;13.11;100.00;101351.28;4086652;29;20660;-68
2020/12/22 07:07:02;;;;;;;6.40;1.45;;;14.00;99.90;;;13.04;100.00;101352.06;4087149;29;20042;-68
2020/12/22 07:09:03;;;;;;;4.90;1.30;;;13.90;99.90;;;13.09;100.00;101341.84;4119704;28;20065;-67
2020/12/22 07:11:21;;;;;;;9.23;2.17;;;13.90;99.90;;;13.11;100.00;101340.69;4119472;28;20027;-68
2020/12/22 07:13:26;;;;;;;6.95;1.55;;;13.90;99.90;;;13.10;100.00;101351.47;4102059;28;20038;-68
2020/12/22 07:15:47;;;;;;;4.07;1.20;;;13.90;99.90;;;13.06;100.00;101340.31;4085386;29;20087;-68
2020/12/22 07:17:50;;;;;;;8.25;1.55;;;13.90;99.90;;;13.11;100.00;101343.34;4119356;28;20023;-68
2020/12/22 07:19:55;;;;;;;6.72;1.92;;;13.90;99.90;;;13.15;100.00;101351.81;4101960;28;20038;-69
2020/12/22 07:21:57;;;;;;;9.38;1.35;;;13.90;99.90;;;13.01;100.00;101342.63;4101896;29;20067;-68
2020/12/22 07:23:59;;;;;;;4.50;1.50;;;13.90;99.90;;;13.00;100.00;101340.94;4102178;28;20035;-68
2020/12/22 07:26:01;;;;;;;5.97;1.45;;;13.90;99.90;;;13.02;100.00;101354.84;4102324;28;20070;-69
2020/12/22 07:28:05;;;;;;;3.95;1.42;;;13.80;99.90;;;13.08;100.00;101351.59;4102188;29;20042;-68
2020/12/22 07:30:06;;;;;;;3.75;1.52;;;13.90;99.90;;;13.05;100.00;101349.22;4102057;29;20027;-68
2020/12/22 07:32:08;;;;;;;3.20;1.05;;;13.90;99.90;;;13.10;100.00;101359.41;4118223;28;20046;-68
2020/12/22 07:34:09;;;;;;;3.90;1.02;;;13.90;99.90;;;13.08;100.00;101362.19;4085912;29;20031;-68
2020/12/22 07:36:10;;;;;;;4.82;1.10;;;13.90;99.90;;;13.02;100.00;101346.91;4119296;28;20097;-69
2020/12/22 07:38:11;;;;;;;6.72;1.50;;;13.90;99.90;;;13.02;100.00;101356.69;4102033;28;20035;-69
2020/12/22 07:40:12;;;;;;;4.55;1.20;;;13.90;99.90;;;13.11;100.00;101355.78;4119209;28;20058;-69
2020/12/22 07:42:17;;;;;;;5.90;1.55;;;13.90;99.90;;;13.05;100.00;101356.38;4101636;28;20515;-68
2020/12/22 07:44:23;;;;;;;6.13;1.27;;;13.90;99.90;;;13.11;100.00;101361.09;4117687;28;20035;-68
2020/12/22 07:46:24;;;;;;;4.55;0.98;;;13.90;99.90;;;13.13;100.00;101362.56;4118652;28;20037;-68
2020/12/22 07:48:24;;;;;;;4.82;1.05;;;13.90;99.90;;;13.07;100.00;101363.16;4115605;28;20038;-68
2020/12/22 07:50:25;;;;;;;3.80;1.10;;;13.90;99.90;;;13.06;100.00;101368.63;4101110;29;20046;-69
2020/12/22 07:52:26;;;;;;;4.50;1.23;;;13.90;99.90;;;13.10;100.00;101362.06;4118063;28;20027;-68
2020/12/22 07:54:27;;;;;;;3.85;1.00;;;13.90;99.90;;;13.10;100.00;101360.25;4118788;28;20027;-68
2020/12/22 07:56:31;;;;;;;6.35;1.20;;;13.90;99.90;;;13.11;100.00;101363.72;4118891;28;20055;-67
2020/12/22 07:58:33;;;;;;;1.60;1.02;;;13.90;99.90;;;13.12;100.00;101365.38;4101876;28;20086;-67
2020/12/22 08:00:35;;;;;;;3.40;1.02;;;13.90;99.90;;;13.04;100.00;101341.47;4101791;28;20099;-68
2020/12/22 08:02:36;;;;;;;2.85;0.88;;;13.90;99.90;;;13.11;100.00;101369.03;4085440;29;20031;-67
2020/12/22 08:04:37;;;;;;;1.77;0.80;;;13.90;99.90;;;13.17;100.00;101363.09;4100767;29;20027;-68
2020/12/22 08:06:40;;;;;;;1.98;0.98;;;14.00;99.90;;;13.12;100.00;101371.50;4101627;29;20031;-68
2020/12/22 08:08:41;;;;;;;1.60;0.80;;;14.00;99.90;;;13.15;100.00;101360.59;4101542;29;20106;-68
2020/12/22 08:10:42;;;;;;;1.42;0.68;;;14.00;99.90;;;13.21;100.00;101367.06;4101511;29;20240;-68
2020/12/22 08:12:43;;;;;;;3.55;0.82;;;14.00;99.90;;;13.16;100.00;101372.84;4117959;28;20038;-69
2020/12/22 08:14:45;;;;;;;2.33;0.75;;;14.00;99.90;;;13.16;100.00;101385.28;4099845;29;20031;-68
2020/12/22 08:16:48;;;;;;;2.85;1.95;;;14.00;99.90;;;13.19;100.00;101359.31;4100821;28;20034;-68
2020/12/22 08:18:50;;;;;;;2.95;1.00;;;14.00;99.90;;;13.20;100.00;101363.59;4100970;29;20031;-68
2020/12/22 08:20:56;;;;;;;2.20;1.00;;;14.00;99.90;;;13.18;100.00;101376.16;4118523;28;20052;-67